CST,Max TemperatureF,Mean TemperatureF,Min TemperatureF,Max Dew PointF,MeanDew PointF,Min DewpointF,Max Humidity, Mean Humidity, Min Humidity, Max Sea Level PressureIn, Mean Sea Level PressureIn, Min Sea Level PressureIn, Max VisibilityMiles, Mean VisibilityMiles, Min VisibilityMiles, Max Wind SpeedMPH, Mean Wind SpeedMPH, Max Gust SpeedMPH,PrecipitationIn, CloudCover, Events, WindDirDegrees
2013-2-1,10,0,-9,7,-9,-18,85,67,55,30.31,30.20,30.00,10,9,1,20,12,23,0.00,4,Snow,224
2013-2-2,14,12,10,10,6,3,92,77,67,30.12,30.04,29.93,10,8,2,17,8,21,0.00,7,Rain-Snow,291
2013-2-3,21,14,8,16,10,3,93,75,62,30.09,29.99,29.83,10,9,3,28,10,36,0.00,7,Rain-Snow,280
2013-2-4,21,16,10,16,9,3,86,75,58,30.01,29.92,29.82,10,10,8,16,11,21,0.00,5,Rain-Snow,43
2013-2-5,33,24,15,28,20,10,93,81,69,30.10,29.88,29.74,10,7,1,25,13,32,0.00,8,Rain-Snow,271
2013-2-6,35,24,14,32,23,12,93,87,74,30.12,30.02,29.89,10,5,2,23,6,30,0.02,5,Rain,157
2013-2-7,35,30,26,32,29,23,100,91,86,30.18,30.00,29.91,10,5,0,22,10,25,0.00,7,Fog-Rain,15
2013-2-8,28,26,24,23,22,21,86,81,74,30.34,30.28,30.18,10,10,9,17,10,20,0.00,8,,70
2013-2-9,30,28,26,27,25,23,93,87,80,30.25,30.10,29.90,10,7,3,23,16,33,0.00,8,,157
2013-2-10,39,34,30,37,33,27,100,93,81,29.91,29.48,29.26,10,3,0,25,17,33,0.45,8,Fog-Rain-Snow,156
2013-2-11,32,26,21,28,20,16,93,80,69,30.06,29.81,29.37,10,6,0,32,24,48,0.01,8,Rain-Snow,289
2013-2-12,35,27,19,28,22,14,93,79,70,30.09,29.97,29.82,10,10,9,17,10,22,0.00,3,,233
2013-2-13,39,32,24,32,28,21,93,83,75,29.83,29.72,29.59,10,10,7,14,7,21,0.00,4,Rain,246
2013-2-14,37,30,23,32,25,10,93,77,54,30.13,29.85,29.60,10,10,1,25,17,33,0.00,6,Rain-Snow,310
2013-2-15,23,18,12,12,7,3,79,65,53,30.27,30.23,30.14,10,10,10,24,14,29,0.00,1,,316
2013-2-16,24,17,10,14,10,5,85,74,63,30.25,30.16,30.10,10,9,3,14,8,16,0.00,4,Snow,312
2013-2-17,33,24,15,23,18,10,86,74,64,30.10,29.94,29.68,10,10,10,23,13,29,0.00,1,,143
2013-2-18,39,24,6,32,19,0,93,78,62,29.80,29.63,29.55,10,8,1,33,16,43,0.00,4,Rain-Snow,284
2013-2-19,10,5,0,0,-5,-9,78,66,61,30.30,30.06,29.81,10,7,1,30,25,39,0.00,6,Snow,310
2013-2-20,21,10,-2,10,0,-9,79,67,53,30.41,30.36,30.31,10,10,10,14,9,12,0.00,0,,9
2013-2-21,23,16,10,19,10,3,93,74,63,30.36,30.19,29.92,10,9,0,23,11,29,0.01,3,Rain-Snow,72
2013-2-22,28,24,19,21,19,16,93,83,74,29.91,29.85,29.80,10,7,0,15,11,21,0.01,8,Rain-Snow,352
2013-2-23,17,16,15,14,13,12,86,85,79,29.90,29.89,29.88,10,10,9,13,11,,0.00,8,,264
2013-2-24,,,,,,,,,,,,,,,,,,,,,,
2013-2-25,,,,,,,,,,,,,,,,,,,,,,
2013-2-26,33,32,30,28,26,25,93,76,70,29.81,29.76,29.72,10,9,1,23,17,30,0.00,4,Snow,17
2013-2-27,33,30,28,28,26,23,93,85,75,29.93,29.80,29.75,10,6,1,23,15,30,0.00,7,Rain-Snow,348
2013-2-28,30,27,24,25,22,21,86,79,69,30.14,30.06,29.92,10,10,6,18,15,24,0.00,8,Rain-Snow,340